Accueil
METAR-TAF:

METAR-TAF

Aéroports :

Base aérienne 105 Évreux-Fauville

Évreux, France

latitude: 49-01N, longitude: 001-13E, altitude: 141 m

Observation

Le bulletin a été fait il y a 29 minutes, à 15:30 UTC
Vent 12 kt de nord-est
Température 5°C
Humidité 56%
Pression 1027 hPa
Visibilité 10 km ou plus
Nuages fragmentés à une hauteur de 4200 ft

METAR: LFOE 051530Z AUTO 05012KT 9999 BKN042 05/M03 Q1027 TEMPO 05015G25KT

Heure: 16:59 (15:59 UTC)

Prévision

Le bulletin a été fait il y a 1 heure et 59 minutes, à 14:00 UTC
Prévision valable du 05 à 15 UTC au 06 à 15 UTC
Vent 12 kt de nord-est
Visibilité 10 km ou plus
Nuages fragmentés à une hauteur de 4000 ft
Temporairement
du 05 à 15 UTC au 05 à 18 UTC
Vent 15 kt de nord-est avec des rafales jusqu'à 25 kt

TAF: LFOE 051400Z 0515/0615 04012KT 9999 BKN040 TEMPO 0515/0518 05015G25KT

Observations et prévisions météorologiques de plus de 4000 aéroports (messages METAR et TAF).

Les stations disponibles sont représentées par des disques jaunes et rouges sur la carte.

Passer la souris dessus pour voir le nom de la station.

Cliquer dessus pour voir les observations et prévisions météorologiques.

Pour changer de carte: cliquez sur les boutons verts avec une croix noire pour zoomer, sur le bouton vert avec un tiret pour effectuer un zoom arrière, ou sur les flèches vertes pour les cartes adjacentes.


METAR-TAF: